Cool Ridge, WV (25825)

1:53 PM EDT on July 27, 2016 (GMT -0400)
Cool Ridge | | Change Station

Elev 2965 ft 37.66 °N, 81.09 °W | Updated 24 seconds ago

Mostly Cloudy
Mostly Cloudy
84.6 °F
Feels Like 91 °F
N
3.0
Wind Variable Wind from SW
Gusts 5.0 mph

Today
High -- | Low -- °F
--% Chance of Precip.
Yesterday
High -- | Low -- °F
Precip. -- in
Pressure 29.98 in
Visibility 10.0 miles
Clouds Scattered Clouds 3300 ft
Scattered Clouds 4800 ft
Mostly Cloudy 6500 ft
Heat Index 91 °F
Dew Point 72 °F
Humidity 67%
Rainfall 0.00 in
Snow Depth Not available.
6:24 AM 8:36 PM
Last Quarter, 41% visible
METAR KBKW 271751Z AUTO VRB03KT 10SM SCT033 SCT048 BKN065 28/22 A3009 RMK AO2 LTG DSNT E AND W RAB17E35 CIG 045 RWY19 SLP152 P0000 60000 T02780217 10294 20217 58008
Pressure 29.98 in
Visibility 10.0 miles
Clouds Scattered Clouds 3300 ft
Scattered Clouds 4800 ft
Mostly Cloudy 6500 ft
Heat Index 91 °F
Dew Point 72 °F
Humidity 67%
Rainfall 0.00 in
Snow Depth Not available.
6:24 AM 8:36 PM
Last Quarter, 41% visible
METAR KBKW 271751Z AUTO VRB03KT 10SM SCT033 SCT048 BKN065 28/22 A3009 RMK AO2 LTG DSNT E AND W RAB17E35 CIG 045 RWY19 SLP152 P0000 60000 T02780217 10294 20217 58008

10-Day Weather Forecast

Almanac

Astronomy

Jul. 27, 2016 Rise Set
Actual Time
Civil Twilight
Nautical Twilight
Astronomical Twilight
Moon
Length of Visible Light
Length of Day
Tomorrow will be .
, % of the Moon is Illuminated

Today's Extremes

State Highs State Lows

Community

WunderPhotos

Upload Photos

1,927,889 photos uploaded!

WunderBlog® & News

Nearby

Air Quality

  Air Quality AQ Index Pollutant
Not available.

Snow Depth

Station Depth Elevation

Earthquake Activity

City Distance Mag. Time & Date
Minimum magnitude displayed is 2.5.

Coastal Water Temperatures

Place Temperature

Stations

Nearby Weather Stations

Station Location Temp. Windchill Dew Point Humidity Wind Precip. Elev Updated Type
                   

Watches & Warnings

There are currently no watches in effect.